sensor_id;sensor_type;location;lat;lon;timestamp;temperature;humidity
19435;DHT22;9853;50.848;4.108;2023-02-17T00:00:12;12.30;99.90
19435;DHT22;9853;50.848;4.108;2023-02-17T00:02:13;12.30;99.90
19435;DHT22;9853;50.848;4.108;2023-02-17T00:04:15;12.30;99.90
19435;DHT22;9853;50.848;4.108;2023-02-17T00:06:18;12.40;99.90
19435;DHT22;9853;50.848;4.108;2023-02-17T00:08:19;12.40;99.90
19435;DHT22;9853;50.848;4.108;2023-02-17T00:10:20;12.30;99.90
19435;DHT22;9853;50.848;4.108;2023-02-17T00:12:21;12.30;99.90
19435;DHT22;9853;50.848;4.108;2023-02-17T00:14:21;12.40;99.90
19435;DHT22;9853;50.848;4.108;2023-02-17T00:16:24;12.20;99.90
19435;DHT22;9853;50.848;4.108;2023-02-17T00:18:25;12.20;99.90
19435;DHT22;9853;50.848;4.108;2023-02-17T00:20:28;12.20;99.90
19435;DHT22;9853;50.848;4.108;2023-02-17T00:22:29;12.20;99.90
19435;DHT22;9853;50.848;4.108;2023-02-17T00:24:31;12.20;99.90
19435;DHT22;9853;50.848;4.108;2023-02-17T00:26:33;12.30;99.90
19435;DHT22;9853;50.848;4.108;2023-02-17T00:28:34;12.30;99.90
19435;DHT22;9853;50.848;4.108;2023-02-17T00:30:36;12.20;99.90
19435;DHT22;9853;50.848;4.108;2023-02-17T00:32:37;12.10;99.90
19435;DHT22;9853;50.848;4.108;2023-02-17T00:34:38;12.10;99.90
19435;DHT22;9853;50.848;4.108;2023-02-17T00:36:39;12.20;99.90
19435;DHT22;9853;50.848;4.108;2023-02-17T00:38:40;12.10;99.90
19435;DHT22;9853;50.848;4.108;2023-02-17T00:40:40;12.10;99.90
19435;DHT22;9853;50.848;4.108;2023-02-17T00:42:42;12.20;99.90
19435;DHT22;9853;50.848;4.108;2023-02-17T00:44:42;12.10;99.90
19435;DHT22;9853;50.848;4.108;2023-02-17T00:46:44;12.10;99.90
19435;DHT22;9853;50.848;4.108;2023-02-17T00:48:47;12.00;99.90
19435;DHT22;9853;50.848;4.108;2023-02-17T00:50:49;12.00;99.90
19435;DHT22;9853;50.848;4.108;2023-02-17T00:52:51;12.00;99.90
19435;DHT22;9853;50.848;4.108;2023-02-17T00:54:51;12.10;99.90
19435;DHT22;9853;50.848;4.108;2023-02-17T00:56:52;12.30;99.90
19435;DHT22;9853;50.848;4.108;2023-02-17T00:58:53;12.30;99.90
19435;DHT22;9853;50.848;4.108;2023-02-17T01:00:55;12.10;99.90
19435;DHT22;9853;50.848;4.108;2023-02-17T01:02:55;12.10;99.90
19435;DHT22;9853;50.848;4.108;2023-02-17T01:04:57;12.10;99.90
19435;DHT22;9853;50.848;4.108;2023-02-17T01:06:57;12.10;99.90
19435;DHT22;9853;50.848;4.108;2023-02-17T01:08:58;12.10;99.90
19435;DHT22;9853;50.848;4.108;2023-02-17T01:11:00;12.20;99.90
19435;DHT22;9853;50.848;4.108;2023-02-17T01:13:01;12.20;99.90
19435;DHT22;9853;50.848;4.108;2023-02-17T01:15:02;12.20;99.90
19435;DHT22;9853;50.848;4.108;2023-02-17T01:17:02;12.20;99.90
19435;DHT22;9853;50.848;4.108;2023-02-17T01:19:05;12.20;99.90
19435;DHT22;9853;50.848;4.108;2023-02-17T01:21:15;12.10;99.90
19435;DHT22;9853;50.848;4.108;2023-02-17T01:23:16;12.10;99.90
19435;DHT22;9853;50.848;4.108;2023-02-17T01:25:16;12.00;99.90
19435;DHT22;9853;50.848;4.108;2023-02-17T01:27:17;12.00;99.90
19435;DHT22;9853;50.848;4.108;2023-02-17T01:29:18;11.90;99.90
19435;DHT22;9853;50.848;4.108;2023-02-17T01:31:21;11.80;99.90
19435;DHT22;9853;50.848;4.108;2023-02-17T01:33:22;11.60;99.90
19435;DHT22;9853;50.848;4.108;2023-02-17T01:35:22;11.50;99.90
19435;DHT22;9853;50.848;4.108;2023-02-17T01:37:23;11.50;99.90
19435;DHT22;9853;50.848;4.108;2023-02-17T01:39:24;11.50;99.90
19435;DHT22;9853;50.848;4.108;2023-02-17T01:41:26;11.50;99.90
19435;DHT22;9853;50.848;4.108;2023-02-17T01:43:27;11.50;99.90
19435;DHT22;9853;50.848;4.108;2023-02-17T01:45:39;11.50;99.90
19435;DHT22;9853;50.848;4.108;2023-02-17T01:47:39;11.60;99.90
19435;DHT22;9853;50.848;4.108;2023-02-17T01:49:40;11.70;99.90
19435;DHT22;9853;50.848;4.108;2023-02-17T01:51:41;11.70;99.90
19435;DHT22;9853;50.848;4.108;2023-02-17T01:55:56;11.90;99.90
19435;DHT22;9853;50.848;4.108;2023-02-17T01:58:00;11.90;99.90
19435;DHT22;9853;50.848;4.108;2023-02-17T02:00:03;12.00;99.90
19435;DHT22;9853;50.848;4.108;2023-02-17T02:02:13;12.00;99.90
19435;DHT22;9853;50.848;4.108;2023-02-17T02:04:18;11.90;99.90
19435;DHT22;9853;50.848;4.108;2023-02-17T02:06:23;11.70;99.90
19435;DHT22;9853;50.848;4.108;2023-02-17T02:08:26;11.70;99.90
19435;DHT22;9853;50.848;4.108;2023-02-17T02:10:28;11.60;99.90
19435;DHT22;9853;50.848;4.108;2023-02-17T02:12:33;11.60;99.90
19435;DHT22;9853;50.848;4.108;2023-02-17T02:14:35;11.60;99.90
19435;DHT22;9853;50.848;4.108;2023-02-17T02:24:35;11.50;99.90
19435;DHT22;9853;50.848;4.108;2023-02-17T02:36:31;11.60;99.90
19435;DHT22;9853;50.848;4.108;2023-02-17T02:38:42;11.50;99.90
19435;DHT22;9853;50.848;4.108;2023-02-17T02:40:55;11.50;99.90
19435;DHT22;9853;50.848;4.108;2023-02-17T02:42:57;11.60;99.90
19435;DHT22;9853;50.848;4.108;2023-02-17T02:45:00;11.70;99.90
19435;DHT22;9853;50.848;4.108;2023-02-17T02:47:33;11.70;99.90
19435;DHT22;9853;50.848;4.108;2023-02-17T02:49:27;11.80;99.90
19435;DHT22;9853;50.848;4.108;2023-02-17T02:57:01;11.70;99.90
19435;DHT22;9853;50.848;4.108;2023-02-17T03:02:17;11.60;99.90
19435;DHT22;9853;50.848;4.108;2023-02-17T03:04:30;11.70;99.90
19435;DHT22;9853;50.848;4.108;2023-02-17T03:07:00;11.70;99.90
19435;DHT22;9853;50.848;4.108;2023-02-17T03:09:25;11.60;99.90
19435;DHT22;9853;50.848;4.108;2023-02-17T03:11:28;11.50;99.90
19435;DHT22;9853;50.848;4.108;2023-02-17T03:13:34;11.60;99.90
19435;DHT22;9853;50.848;4.108;2023-02-17T03:15:40;11.70;99.90
19435;DHT22;9853;50.848;4.108;2023-02-17T03:17:41;11.70;99.90
19435;DHT22;9853;50.848;4.108;2023-02-17T03:19:42;11.70;99.90
19435;DHT22;9853;50.848;4.108;2023-02-17T03:22:12;11.60;99.90
19435;DHT22;9853;50.848;4.108;2023-02-17T03:24:15;11.60;99.90
19435;DHT22;9853;50.848;4.108;2023-02-17T03:26:17;11.60;99.90
19435;DHT22;9853;50.848;4.108;2023-02-17T03:28:19;11.60;99.90
19435;DHT22;9853;50.848;4.108;2023-02-17T03:30:21;11.70;99.90
19435;DHT22;9853;50.848;4.108;2023-02-17T03:32:22;11.60;99.90
19435;DHT22;9853;50.848;4.108;2023-02-17T03:34:23;11.80;99.90
19435;DHT22;9853;50.848;4.108;2023-02-17T03:36:24;11.70;99.90
19435;DHT22;9853;50.848;4.108;2023-02-17T03:38:24;11.80;99.90
19435;DHT22;9853;50.848;4.108;2023-02-17T03:40:25;11.90;99.90
19435;DHT22;9853;50.848;4.108;2023-02-17T03:42:26;11.80;99.90
19435;DHT22;9853;50.848;4.108;2023-02-17T03:44:27;11.90;99.90
19435;DHT22;9853;50.848;4.108;2023-02-17T03:46:28;11.80;99.90
19435;DHT22;9853;50.848;4.108;2023-02-17T03:48:28;11.80;99.90
19435;DHT22;9853;50.848;4.108;2023-02-17T03:50:30;11.70;99.90
19435;DHT22;9853;50.848;4.108;2023-02-17T03:52:30;11.60;99.90
19435;DHT22;9853;50.848;4.108;2023-02-17T03:54:31;11.50;99.90
19435;DHT22;9853;50.848;4.108;2023-02-17T03:56:32;11.50;99.90
19435;DHT22;9853;50.848;4.108;2023-02-17T03:58:33;11.60;99.90
19435;DHT22;9853;50.848;4.108;2023-02-17T04:00:34;11.60;99.90
19435;DHT22;9853;50.848;4.108;2023-02-17T04:02:35;11.70;99.90
19435;DHT22;9853;50.848;4.108;2023-02-17T04:04:35;11.60;99.90
19435;DHT22;9853;50.848;4.108;2023-02-17T04:06:37;11.60;99.90
19435;DHT22;9853;50.848;4.108;2023-02-17T04:08:38;11.60;99.90
19435;DHT22;9853;50.848;4.108;2023-02-17T04:10:56;11.70;99.90
19435;DHT22;9853;50.848;4.108;2023-02-17T04:13:09;11.70;99.90
19435;DHT22;9853;50.848;4.108;2023-02-17T04:15:26;11.60;99.90
19435;DHT22;9853;50.848;4.108;2023-02-17T04:17:31;11.40;99.90
19435;DHT22;9853;50.848;4.108;2023-02-17T04:19:33;11.50;99.90
19435;DHT22;9853;50.848;4.108;2023-02-17T04:21:36;11.50;99.90
19435;DHT22;9853;50.848;4.108;2023-02-17T04:23:39;11.60;99.90
19435;DHT22;9853;50.848;4.108;2023-02-17T04:25:47;11.70;99.90
19435;DHT22;9853;50.848;4.108;2023-02-17T04:27:47;11.60;99.90
19435;DHT22;9853;50.848;4.108;2023-02-17T04:29:51;11.60;99.90
19435;DHT22;9853;50.848;4.108;2023-02-17T04:31:54;11.70;99.90
19435;DHT22;9853;50.848;4.108;2023-02-17T04:33:57;11.50;99.90
19435;DHT22;9853;50.848;4.108;2023-02-17T04:36:12;11.30;99.90
19435;DHT22;9853;50.848;4.108;2023-02-17T04:38:15;11.40;99.90
19435;DHT22;9853;50.848;4.108;2023-02-17T04:41:14;11.60;99.90
19435;DHT22;9853;50.848;4.108;2023-02-17T04:43:46;11.60;99.90
19435;DHT22;9853;50.848;4.108;2023-02-17T04:48:51;11.50;99.90
19435;DHT22;9853;50.848;4.108;2023-02-17T04:50:59;11.50;99.90
19435;DHT22;9853;50.848;4.108;2023-02-17T04:55:47;11.50;99.90
19435;DHT22;9853;50.848;4.108;2023-02-17T04:58:23;11.60;99.90
19435;DHT22;9853;50.848;4.108;2023-02-17T05:00:53;11.50;99.90
19435;DHT22;9853;50.848;4.108;2023-02-17T05:02:54;11.50;99.90
19435;DHT22;9853;50.848;4.108;2023-02-17T05:05:35;11.60;99.90
19435;DHT22;9853;50.848;4.108;2023-02-17T05:07:56;11.70;99.90
19435;DHT22;9853;50.848;4.108;2023-02-17T05:10:51;11.60;99.90
19435;DHT22;9853;50.848;4.108;2023-02-17T05:13:34;11.50;99.90
19435;DHT22;9853;50.848;4.108;2023-02-17T05:16:20;11.30;99.90
19435;DHT22;9853;50.848;4.108;2023-02-17T05:18:50;11.30;99.90
19435;DHT22;9853;50.848;4.108;2023-02-17T05:21:23;11.40;99.90
19435;DHT22;9853;50.848;4.108;2023-02-17T05:23:55;11.40;99.90
19435;DHT22;9853;50.848;4.108;2023-02-17T05:26:19;11.50;99.90
19435;DHT22;9853;50.848;4.108;2023-02-17T05:28:30;11.30;99.90
19435;DHT22;9853;50.848;4.108;2023-02-17T05:30:50;11.40;99.90
19435;DHT22;9853;50.848;4.108;2023-02-17T05:33:52;11.40;99.90
19435;DHT22;9853;50.848;4.108;2023-02-17T05:36:31;11.30;99.90
19435;DHT22;9853;50.848;4.108;2023-02-17T05:38:49;11.50;99.90
19435;DHT22;9853;50.848;4.108;2023-02-17T05:44:27;11.50;99.90
19435;DHT22;9853;50.848;4.108;2023-02-17T05:49:22;11.50;99.90
19435;DHT22;9853;50.848;4.108;2023-02-17T05:52:01;11.50;99.90
19435;DHT22;9853;50.848;4.108;2023-02-17T05:54:44;11.40;99.90
19435;DHT22;9853;50.848;4.108;2023-02-17T05:56:37;11.50;99.90
19435;DHT22;9853;50.848;4.108;2023-02-17T05:59:11;11.60;99.90
19435;DHT22;9853;50.848;4.108;2023-02-17T06:04:28;11.40;99.90
19435;DHT22;9853;50.848;4.108;2023-02-17T06:06:32;11.40;99.90
19435;DHT22;9853;50.848;4.108;2023-02-17T06:08:33;11.40;99.90
19435;DHT22;9853;50.848;4.108;2023-02-17T06:10:40;11.30;99.90
19435;DHT22;9853;50.848;4.108;2023-02-17T06:12:50;11.30;99.90
19435;DHT22;9853;50.848;4.108;2023-02-17T06:14:50;11.30;99.90
19435;DHT22;9853;50.848;4.108;2023-02-17T06:16:57;11.30;99.90
19435;DHT22;9853;50.848;4.108;2023-02-17T06:19:05;11.30;99.90
19435;DHT22;9853;50.848;4.108;2023-02-17T06:21:19;11.20;99.90
19435;DHT22;9853;50.848;4.108;2023-02-17T06:23:20;11.10;99.90
19435;DHT22;9853;50.848;4.108;2023-02-17T06:25:20;11.20;99.90
19435;DHT22;9853;50.848;4.108;2023-02-17T06:27:21;11.20;99.90
19435;DHT22;9853;50.848;4.108;2023-02-17T06:29:22;11.10;99.90
19435;DHT22;9853;50.848;4.108;2023-02-17T06:31:23;11.20;99.90
19435;DHT22;9853;50.848;4.108;2023-02-17T06:33:24;11.30;99.90
19435;DHT22;9853;50.848;4.108;2023-02-17T06:35:25;11.20;99.90
19435;DHT22;9853;50.848;4.108;2023-02-17T06:37:26;11.40;99.90
19435;DHT22;9853;50.848;4.108;2023-02-17T06:39:28;11.30;99.90
19435;DHT22;9853;50.848;4.108;2023-02-17T06:41:29;11.30;99.90
19435;DHT22;9853;50.848;4.108;2023-02-17T06:43:30;11.40;99.90
19435;DHT22;9853;50.848;4.108;2023-02-17T06:45:31;11.50;99.90
19435;DHT22;9853;50.848;4.108;2023-02-17T06:47:32;11.40;99.90
19435;DHT22;9853;50.848;4.108;2023-02-17T06:49:33;11.50;99.90
19435;DHT22;9853;50.848;4.108;2023-02-17T06:51:34;11.50;99.90
19435;DHT22;9853;50.848;4.108;2023-02-17T06:53:36;11.40;99.90
19435;DHT22;9853;50.848;4.108;2023-02-17T06:55:41;11.40;99.90
19435;DHT22;9853;50.848;4.108;2023-02-17T06:57:42;11.40;99.90
19435;DHT22;9853;50.848;4.108;2023-02-17T06:59:44;11.40;99.90
19435;DHT22;9853;50.848;4.108;2023-02-17T07:01:45;11.40;99.90
19435;DHT22;9853;50.848;4.108;2023-02-17T07:03:49;11.50;99.90
19435;DHT22;9853;50.848;4.108;2023-02-17T07:05:59;11.60;99.90
19435;DHT22;9853;50.848;4.108;2023-02-17T07:08:00;11.40;99.90
19435;DHT22;9853;50.848;4.108;2023-02-17T07:10:06;11.50;99.90
19435;DHT22;9853;50.848;4.108;2023-02-17T07:12:10;11.60;99.90
19435;DHT22;9853;50.848;4.108;2023-02-17T07:14:13;11.70;99.90
19435;DHT22;9853;50.848;4.108;2023-02-17T07:16:16;11.70;99.90
19435;DHT22;9853;50.848;4.108;2023-02-17T07:18:17;11.70;99.90
19435;DHT22;9853;50.848;4.108;2023-02-17T07:20:23;11.80;99.90
19435;DHT22;9853;50.848;4.108;2023-02-17T07:22:24;11.60;99.90
19435;DHT22;9853;50.848;4.108;2023-02-17T07:24:26;11.60;99.90
19435;DHT22;9853;50.848;4.108;2023-02-17T07:26:44;11.60;99.90
19435;DHT22;9853;50.848;4.108;2023-02-17T07:28:45;11.60;99.90
19435;DHT22;9853;50.848;4.108;2023-02-17T07:30:47;11.60;99.90
19435;DHT22;9853;50.848;4.108;2023-02-17T07:32:48;11.60;99.90
19435;DHT22;9853;50.848;4.108;2023-02-17T07:34:53;11.50;99.90
19435;DHT22;9853;50.848;4.108;2023-02-17T07:36:57;11.60;99.90
19435;DHT22;9853;50.848;4.108;2023-02-17T07:38:58;11.70;99.90
19435;DHT22;9853;50.848;4.108;2023-02-17T07:41:22;11.80;99.90
19435;DHT22;9853;50.848;4.108;2023-02-17T07:43:31;11.70;99.90
19435;DHT22;9853;50.848;4.108;2023-02-17T07:45:32;11.90;99.90
19435;DHT22;9853;50.848;4.108;2023-02-17T07:47:42;11.80;99.90
19435;DHT22;9853;50.848;4.108;2023-02-17T07:49:43;11.80;99.90
19435;DHT22;9853;50.848;4.108;2023-02-17T07:51:44;11.80;99.90
19435;DHT22;9853;50.848;4.108;2023-02-17T07:53:50;11.70;99.90
19435;DHT22;9853;50.848;4.108;2023-02-17T07:55:51;11.70;99.90
19435;DHT22;9853;50.848;4.108;2023-02-17T07:57:53;11.80;99.90
19435;DHT22;9853;50.848;4.108;2023-02-17T07:59:57;11.90;99.90
19435;DHT22;9853;50.848;4.108;2023-02-17T08:01:57;11.90;99.90
19435;DHT22;9853;50.848;4.108;2023-02-17T08:03:58;12.00;99.90
19435;DHT22;9853;50.848;4.108;2023-02-17T08:06:00;12.00;99.90
19435;DHT22;9853;50.848;4.108;2023-02-17T08:08:03;12.10;99.90
19435;DHT22;9853;50.848;4.108;2023-02-17T08:10:25;12.10;99.90
19435;DHT22;9853;50.848;4.108;2023-02-17T08:12:44;12.00;99.90
19435;DHT22;9853;50.848;4.108;2023-02-17T08:15:07;12.10;99.90
19435;DHT22;9853;50.848;4.108;2023-02-17T08:17:13;12.30;99.90
19435;DHT22;9853;50.848;4.108;2023-02-17T08:19:32;12.30;99.90
19435;DHT22;9853;50.848;4.108;2023-02-17T08:21:48;12.30;99.90
19435;DHT22;9853;50.848;4.108;2023-02-17T08:23:53;12.40;99.90
19435;DHT22;9853;50.848;4.108;2023-02-17T08:26:19;12.40;99.90
19435;DHT22;9853;50.848;4.108;2023-02-17T08:28:21;12.30;99.90
19435;DHT22;9853;50.848;4.108;2023-02-17T08:30:34;12.20;99.90
19435;DHT22;9853;50.848;4.108;2023-02-17T08:32:45;12.40;99.90
19435;DHT22;9853;50.848;4.108;2023-02-17T08:34:53;12.30;99.90
19435;DHT22;9853;50.848;4.108;2023-02-17T08:37:11;12.20;99.90
19435;DHT22;9853;50.848;4.108;2023-02-17T08:39:15;12.30;99.90
19435;DHT22;9853;50.848;4.108;2023-02-17T08:41:35;12.40;99.90
19435;DHT22;9853;50.848;4.108;2023-02-17T08:43:36;12.30;99.90
19435;DHT22;9853;50.848;4.108;2023-02-17T08:45:39;12.40;99.90
19435;DHT22;9853;50.848;4.108;2023-02-17T08:47:43;12.40;99.90
19435;DHT22;9853;50.848;4.108;2023-02-17T08:50:05;12.60;99.90
19435;DHT22;9853;50.848;4.108;2023-02-17T08:52:06;12.70;99.90
19435;DHT22;9853;50.848;4.108;2023-02-17T08:54:08;12.90;99.90
19435;DHT22;9853;50.848;4.108;2023-02-17T08:56:12;13.10;99.90
19435;DHT22;9853;50.848;4.108;2023-02-17T08:58:13;13.10;99.90
19435;DHT22;9853;50.848;4.108;2023-02-17T09:00:14;13.10;99.90
19435;DHT22;9853;50.848;4.108;2023-02-17T09:02:16;13.30;99.90
19435;DHT22;9853;50.848;4.108;2023-02-17T09:04:16;13.30;99.90
19435;DHT22;9853;50.848;4.108;2023-02-17T09:06:20;13.10;99.90
19435;DHT22;9853;50.848;4.108;2023-02-17T09:08:27;13.20;99.90
19435;DHT22;9853;50.848;4.108;2023-02-17T09:10:35;13.30;99.90
19435;DHT22;9853;50.848;4.108;2023-02-17T09:12:40;13.30;99.90
19435;DHT22;9853;50.848;4.108;2023-02-17T09:14:44;13.60;99.90
19435;DHT22;9853;50.848;4.108;2023-02-17T09:16:44;13.80;99.90
19435;DHT22;9853;50.848;4.108;2023-02-17T09:18:46;13.60;99.90
19435;DHT22;9853;50.848;4.108;2023-02-17T09:20:48;13.70;99.90
19435;DHT22;9853;50.848;4.108;2023-02-17T09:22:49;13.50;99.90
19435;DHT22;9853;50.848;4.108;2023-02-17T09:24:53;13.40;99.90
19435;DHT22;9853;50.848;4.108;2023-02-17T09:26:56;13.60;99.90
19435;DHT22;9853;50.848;4.108;2023-02-17T09:28:57;13.70;99.90
19435;DHT22;9853;50.848;4.108;2023-02-17T09:30:58;13.90;99.90
19435;DHT22;9853;50.848;4.108;2023-02-17T09:33:01;14.00;99.90
19435;DHT22;9853;50.848;4.108;2023-02-17T09:35:06;14.30;99.90
19435;DHT22;9853;50.848;4.108;2023-02-17T09:37:14;14.10;99.90
19435;DHT22;9853;50.848;4.108;2023-02-17T09:39:16;14.10;99.90
19435;DHT22;9853;50.848;4.108;2023-02-17T09:41:44;14.20;99.90
19435;DHT22;9853;50.848;4.108;2023-02-17T09:43:47;14.20;99.90
19435;DHT22;9853;50.848;4.108;2023-02-17T09:45:56;14.00;99.90
19435;DHT22;9853;50.848;4.108;2023-02-17T09:48:07;14.20;99.90
19435;DHT22;9853;50.848;4.108;2023-02-17T09:50:18;14.40;99.90
19435;DHT22;9853;50.848;4.108;2023-02-17T09:57:06;14.50;99.90
19435;DHT22;9853;50.848;4.108;2023-02-17T09:59:32;14.50;99.90
19435;DHT22;9853;50.848;4.108;2023-02-17T10:01:48;14.70;99.90
19435;DHT22;9853;50.848;4.108;2023-02-17T10:04:05;14.70;99.90
19435;DHT22;9853;50.848;4.108;2023-02-17T10:08:21;14.30;99.90
19435;DHT22;9853;50.848;4.108;2023-02-17T10:10:31;14.20;99.90
19435;DHT22;9853;50.848;4.108;2023-02-17T10:12:46;14.20;99.90
19435;DHT22;9853;50.848;4.108;2023-02-17T10:17:31;14.30;99.90
19435;DHT22;9853;50.848;4.108;2023-02-17T10:19:38;14.20;99.90
19435;DHT22;9853;50.848;4.108;2023-02-17T10:22:22;14.10;99.90
19435;DHT22;9853;50.848;4.108;2023-02-17T10:24:16;14.20;99.90
19435;DHT22;9853;50.848;4.108;2023-02-17T10:28:49;14.30;99.90
19435;DHT22;9853;50.848;4.108;2023-02-17T10:31:06;14.20;99.90
19435;DHT22;9853;50.848;4.108;2023-02-17T10:35:19;14.70;99.90
19435;DHT22;9853;50.848;4.108;2023-02-17T10:40:01;14.80;99.90
19435;DHT22;9853;50.848;4.108;2023-02-17T10:44:22;14.80;99.90
19435;DHT22;9853;50.848;4.108;2023-02-17T10:46:29;14.80;99.90
19435;DHT22;9853;50.848;4.108;2023-02-17T10:48:51;14.90;99.90
19435;DHT22;9853;50.848;4.108;2023-02-17T10:50:57;14.90;99.90
19435;DHT22;9853;50.848;4.108;2023-02-17T10:53:09;15.10;99.90
19435;DHT22;9853;50.848;4.108;2023-02-17T10:55:37;14.50;99.90
19435;DHT22;9853;50.848;4.108;2023-02-17T10:57:46;14.50;99.90
19435;DHT22;9853;50.848;4.108;2023-02-17T10:59:55;14.50;99.90
19435;DHT22;9853;50.848;4.108;2023-02-17T11:04:40;14.30;99.90
19435;DHT22;9853;50.848;4.108;2023-02-17T11:06:52;14.00;99.90
19435;DHT22;9853;50.848;4.108;2023-02-17T11:09:04;13.90;99.90
19435;DHT22;9853;50.848;4.108;2023-02-17T11:11:21;14.00;99.90
19435;DHT22;9853;50.848;4.108;2023-02-17T11:13:43;14.30;99.90
19435;DHT22;9853;50.848;4.108;2023-02-17T11:15:51;14.40;99.90
19435;DHT22;9853;50.848;4.108;2023-02-17T11:18:17;14.50;99.90
19435;DHT22;9853;50.848;4.108;2023-02-17T11:20:43;14.80;99.90
19435;DHT22;9853;50.848;4.108;2023-02-17T11:23:04;14.90;99.90
19435;DHT22;9853;50.848;4.108;2023-02-17T11:25:27;14.70;99.90
19435;DHT22;9853;50.848;4.108;2023-02-17T11:27:28;14.70;99.90
19435;DHT22;9853;50.848;4.108;2023-02-17T11:30:13;14.90;99.90
19435;DHT22;9853;50.848;4.108;2023-02-17T11:35:17;14.40;99.90
19435;DHT22;9853;50.848;4.108;2023-02-17T11:37:23;14.30;99.90
19435;DHT22;9853;50.848;4.108;2023-02-17T11:39:47;14.20;99.90
19435;DHT22;9853;50.848;4.108;2023-02-17T11:42:30;14.20;99.90
19435;DHT22;9853;50.848;4.108;2023-02-17T11:44:36;14.10;99.90
19435;DHT22;9853;50.848;4.108;2023-02-17T12:06:51;14.00;99.90
19435;DHT22;9853;50.848;4.108;2023-02-17T12:16:50;14.30;99.90
19435;DHT22;9853;50.848;4.108;2023-02-17T12:24:28;14.00;99.90
19435;DHT22;9853;50.848;4.108;2023-02-17T12:30:07;13.60;99.90
19435;DHT22;9853;50.848;4.108;2023-02-17T12:32:39;13.70;99.90
19435;DHT22;9853;50.848;4.108;2023-02-17T12:37:56;13.70;99.90
19435;DHT22;9853;50.848;4.108;2023-02-17T12:40:59;13.70;99.90
19435;DHT22;9853;50.848;4.108;2023-02-17T12:42:45;13.70;99.90
19435;DHT22;9853;50.848;4.108;2023-02-17T12:44:58;13.70;99.90
19435;DHT22;9853;50.848;4.108;2023-02-17T12:47:52;13.70;99.90
19435;DHT22;9853;50.848;4.108;2023-02-17T12:53:14;14.00;99.90
19435;DHT22;9853;50.848;4.108;2023-02-17T12:55:42;14.10;99.90
19435;DHT22;9853;50.848;4.108;2023-02-17T12:57:48;13.90;99.90
19435;DHT22;9853;50.848;4.108;2023-02-17T13:00:20;13.80;99.90
19435;DHT22;9853;50.848;4.108;2023-02-17T13:02:29;13.70;99.90
19435;DHT22;9853;50.848;4.108;2023-02-17T13:05:01;13.50;99.90
19435;DHT22;9853;50.848;4.108;2023-02-17T13:07:47;13.40;99.90
19435;DHT22;9853;50.848;4.108;2023-02-17T13:10:01;13.20;99.90
19435;DHT22;9853;50.848;4.108;2023-02-17T13:14:45;13.50;99.90
19435;DHT22;9853;50.848;4.108;2023-02-17T13:16:52;13.60;99.90
19435;DHT22;9853;50.848;4.108;2023-02-17T13:18:53;13.40;99.90
19435;DHT22;9853;50.848;4.108;2023-02-17T13:20:57;13.60;99.90
19435;DHT22;9853;50.848;4.108;2023-02-17T13:23:07;13.70;99.90
19435;DHT22;9853;50.848;4.108;2023-02-17T13:25:34;13.50;99.90
19435;DHT22;9853;50.848;4.108;2023-02-17T13:27:37;13.60;99.90
19435;DHT22;9853;50.848;4.108;2023-02-17T13:29:39;13.70;99.90
19435;DHT22;9853;50.848;4.108;2023-02-17T13:32:03;13.50;99.90
19435;DHT22;9853;50.848;4.108;2023-02-17T13:37:13;13.50;99.90
19435;DHT22;9853;50.848;4.108;2023-02-17T13:41:47;13.60;99.90
19435;DHT22;9853;50.848;4.108;2023-02-17T13:43:54;13.70;99.90
19435;DHT22;9853;50.848;4.108;2023-02-17T13:46:04;13.70;99.90
19435;DHT22;9853;50.848;4.108;2023-02-17T13:48:33;13.80;99.90
19435;DHT22;9853;50.848;4.108;2023-02-17T13:50:43;14.10;99.90
19435;DHT22;9853;50.848;4.108;2023-02-17T13:52:50;13.80;99.90
19435;DHT22;9853;50.848;4.108;2023-02-17T13:54:55;13.70;99.90
19435;DHT22;9853;50.848;4.108;2023-02-17T13:56:57;13.70;99.90
19435;DHT22;9853;50.848;4.108;2023-02-17T13:59:15;13.70;99.90
19435;DHT22;9853;50.848;4.108;2023-02-17T14:01:22;13.70;99.90
19435;DHT22;9853;50.848;4.108;2023-02-17T14:03:49;13.70;99.90
19435;DHT22;9853;50.848;4.108;2023-02-17T14:06:05;13.60;99.90
19435;DHT22;9853;50.848;4.108;2023-02-17T14:10:31;13.50;99.90
19435;DHT22;9853;50.848;4.108;2023-02-17T14:12:32;13.60;99.90
19435;DHT22;9853;50.848;4.108;2023-02-17T14:14:50;13.60;99.90
19435;DHT22;9853;50.848;4.108;2023-02-17T14:17:14;13.40;99.90
19435;DHT22;9853;50.848;4.108;2023-02-17T14:19:26;13.50;99.90
19435;DHT22;9853;50.848;4.108;2023-02-17T14:21:32;13.50;99.90
19435;DHT22;9853;50.848;4.108;2023-02-17T14:25:52;13.50;99.90
19435;DHT22;9853;50.848;4.108;2023-02-17T14:27:58;13.60;99.90
19435;DHT22;9853;50.848;4.108;2023-02-17T14:30:26;13.70;99.90
19435;DHT22;9853;50.848;4.108;2023-02-17T14:32:35;13.70;99.90
19435;DHT22;9853;50.848;4.108;2023-02-17T14:34:39;13.50;99.90
19435;DHT22;9853;50.848;4.108;2023-02-17T14:36:40;13.50;99.90
19435;DHT22;9853;50.848;4.108;2023-02-17T14:38:44;13.50;99.90
19435;DHT22;9853;50.848;4.108;2023-02-17T14:41:07;13.40;99.90
19435;DHT22;9853;50.848;4.108;2023-02-17T14:43:12;13.40;99.90
19435;DHT22;9853;50.848;4.108;2023-02-17T14:45:14;13.30;99.90
19435;DHT22;9853;50.848;4.108;2023-02-17T14:47:15;13.10;99.90
19435;DHT22;9853;50.848;4.108;2023-02-17T14:49:16;13.10;99.90
19435;DHT22;9853;50.848;4.108;2023-02-17T14:51:48;13.20;99.90
19435;DHT22;9853;50.848;4.108;2023-02-17T14:53:52;13.10;99.90
19435;DHT22;9853;50.848;4.108;2023-02-17T14:56:20;13.20;99.90
19435;DHT22;9853;50.848;4.108;2023-02-17T14:58:26;13.30;99.90
19435;DHT22;9853;50.848;4.108;2023-02-17T15:00:27;13.50;99.90
19435;DHT22;9853;50.848;4.108;2023-02-17T15:02:32;13.50;99.90
19435;DHT22;9853;50.848;4.108;2023-02-17T15:04:33;13.40;99.90
19435;DHT22;9853;50.848;4.108;2023-02-17T15:06:41;13.50;99.90
19435;DHT22;9853;50.848;4.108;2023-02-17T15:08:48;13.30;99.90
19435;DHT22;9853;50.848;4.108;2023-02-17T15:10:59;13.20;99.90
19435;DHT22;9853;50.848;4.108;2023-02-17T15:13:03;13.10;99.90
19435;DHT22;9853;50.848;4.108;2023-02-17T15:15:04;13.10;99.90
19435;DHT22;9853;50.848;4.108;2023-02-17T15:17:06;13.20;99.90
19435;DHT22;9853;50.848;4.108;2023-02-17T15:19:18;13.30;99.90
19435;DHT22;9853;50.848;4.108;2023-02-17T15:21:53;13.10;99.90
19435;DHT22;9853;50.848;4.108;2023-02-17T15:24:11;13.10;99.90
19435;DHT22;9853;50.848;4.108;2023-02-17T15:26:27;13.00;99.90
19435;DHT22;9853;50.848;4.108;2023-02-17T15:28:31;13.00;99.90
19435;DHT22;9853;50.848;4.108;2023-02-17T15:30:46;13.10;99.90
19435;DHT22;9853;50.848;4.108;2023-02-17T15:32:52;13.20;99.90
19435;DHT22;9853;50.848;4.108;2023-02-17T15:35:25;13.10;99.90
19435;DHT22;9853;50.848;4.108;2023-02-17T15:37:38;13.10;99.90
19435;DHT22;9853;50.848;4.108;2023-02-17T15:39:41;13.10;99.90
19435;DHT22;9853;50.848;4.108;2023-02-17T15:41:46;13.10;99.90
19435;DHT22;9853;50.848;4.108;2023-02-17T15:44:14;13.10;99.90
19435;DHT22;9853;50.848;4.108;2023-02-17T15:46:34;13.10;99.90
19435;DHT22;9853;50.848;4.108;2023-02-17T15:48:55;13.10;99.90
19435;DHT22;9853;50.848;4.108;2023-02-17T15:51:15;13.00;99.90